createdAt,value
2023-02-19T00:00:53.245Z,13.700
2023-02-19T00:05:54.235Z,14.400
2023-02-19T00:07:53.408Z,13.800
2023-02-19T00:10:53.237Z,13.000
2023-02-19T00:12:53.476Z,12.100
2023-02-19T00:15:53.445Z,12.700
2023-02-19T00:17:53.648Z,21.900
2023-02-19T00:20:53.473Z,13.300
2023-02-19T00:22:53.636Z,13.100
2023-02-19T00:25:53.293Z,18.100
2023-02-19T00:27:53.802Z,25.100
2023-02-19T00:30:54.149Z,15.000
2023-02-19T00:32:53.957Z,17.700
2023-02-19T00:35:53.716Z,11.700
2023-02-19T00:37:53.862Z,12.400
2023-02-19T00:40:53.189Z,32.300
2023-02-19T00:42:53.436Z,14.600
2023-02-19T00:47:53.984Z,13.300
2023-02-19T00:52:54.183Z,12.900
2023-02-19T00:57:53.835Z,12.000
2023-02-19T01:02:53.453Z,13.200
2023-02-19T01:07:53.257Z,12.100
2023-02-19T01:12:53.475Z,12.800
2023-02-19T01:17:53.451Z,11.800
2023-02-19T01:22:53.389Z,12.500
2023-02-19T01:50:54.487Z,11.100
2023-02-19T02:08:53.795Z,12.700
2023-02-19T02:13:54.008Z,38.600
2023-02-19T02:16:53.904Z,10.000
2023-02-19T02:18:54.011Z,11.700
2023-02-19T02:21:54.004Z,10.200
2023-02-19T02:24:53.972Z,23.300
2023-02-19T02:28:53.696Z,9.400
2023-02-19T02:31:59.582Z,9.500
2023-02-19T02:41:53.888Z,11.800
2023-02-19T02:43:54.343Z,11.400
2023-02-19T02:44:54.136Z,11.100
2023-02-19T02:46:54.020Z,12.100
2023-02-19T02:49:53.973Z,12.300
2023-02-19T02:51:53.490Z,29.700
2023-02-19T02:52:54.172Z,14.200
2023-02-19T02:54:53.529Z,14.900
2023-02-19T02:57:53.545Z,15.700
2023-02-19T02:59:53.800Z,12.800
2023-02-19T03:00:53.740Z,14.500
2023-02-19T03:02:54.285Z,13.200
2023-02-19T03:04:53.584Z,13.900
2023-02-19T03:05:54.114Z,15.100
2023-02-19T03:07:53.604Z,15.100
2023-02-19T03:10:53.459Z,13.600
2023-02-19T03:12:53.680Z,14.900
2023-02-19T03:13:53.300Z,14.000
2023-02-19T03:15:53.625Z,14.800
2023-02-19T03:16:53.659Z,13.500
2023-02-19T03:18:54.028Z,13.300
2023-02-19T03:21:54.914Z,15.100
2023-02-19T03:23:53.333Z,13.600
2023-02-19T03:26:53.348Z,13.200
2023-02-19T03:31:54.864Z,12.400
2023-02-19T03:36:53.492Z,13.100
2023-02-19T03:37:54.148Z,12.800
2023-02-19T03:41:53.788Z,13.200
2023-02-19T03:45:55.821Z,12.600
2023-02-19T03:50:53.920Z,12.300
2023-02-19T03:53:53.796Z,17.300
2023-02-19T03:55:54.048Z,11.500
2023-02-19T03:58:53.933Z,11.200
2023-02-19T04:00:54.098Z,11.700
2023-02-19T04:03:53.722Z,12.200
2023-02-19T04:06:54.008Z,11.900
2023-02-19T04:08:53.400Z,11.700
2023-02-19T04:11:53.664Z,11.400
2023-02-19T04:13:53.855Z,11.100
2023-02-19T04:16:59.956Z,9.700
2023-02-19T04:18:53.757Z,9.600
2023-02-19T04:21:54.069Z,9.400
2023-02-19T04:26:53.445Z,9.500
2023-02-19T04:28:53.904Z,8.500
2023-02-19T04:31:53.637Z,9.700
2023-02-19T04:33:53.676Z,9.000
2023-02-19T04:36:53.461Z,8.900
2023-02-19T04:38:53.624Z,8.900
2023-02-19T04:41:53.424Z,8.200
2023-02-19T04:43:53.656Z,8.000
2023-02-19T04:46:53.820Z,8.700
2023-02-19T04:48:54.061Z,8.500
2023-02-19T04:50:53.413Z,7.200
2023-02-19T04:53:53.155Z,7.200
2023-02-19T04:55:53.372Z,7.500
2023-02-19T04:58:53.287Z,7.600
2023-02-19T05:00:53.720Z,7.800
2023-02-19T05:03:53.651Z,7.000
2023-02-19T05:05:53.959Z,6.700
2023-02-19T05:08:53.994Z,7.700
2023-02-19T05:10:54.200Z,7.700
2023-02-19T05:13:54.333Z,5.700
2023-02-19T05:15:53.817Z,7.100
2023-02-19T05:20:53.507Z,6.600
2023-02-19T05:25:53.932Z,6.700
2023-02-19T05:30:54.387Z,5.800
2023-02-19T05:35:54.178Z,6.100
2023-02-19T05:40:54.692Z,5.600
2023-02-19T05:42:53.848Z,5.400
2023-02-19T05:45:53.826Z,5.400
2023-02-19T05:50:56.068Z,5.000
2023-02-19T05:55:53.580Z,5.400
2023-02-19T05:57:53.816Z,5.000
2023-02-19T05:58:53.684Z,5.300
2023-02-19T06:00:54.070Z,4.900
2023-02-19T06:03:57.540Z,4.400
2023-02-19T06:05:53.837Z,5.200
2023-02-19T06:08:53.727Z,4.600
2023-02-19T06:10:53.946Z,4.000
2023-02-19T06:13:55.044Z,4.000
2023-02-19T06:15:53.409Z,3.500
2023-02-19T06:17:53.651Z,3.700
2023-02-19T06:20:53.813Z,4.100
2023-02-19T06:22:54.105Z,4.400
2023-02-19T06:25:53.996Z,4.100
2023-02-19T06:27:53.321Z,4.300
2023-02-19T06:30:55.068Z,4.300
2023-02-19T06:32:53.773Z,4.100
2023-02-19T06:35:53.657Z,4.400
2023-02-19T06:37:53.985Z,4.200
2023-02-19T06:40:53.713Z,4.000
2023-02-19T06:42:53.989Z,3.900
2023-02-19T06:45:53.894Z,3.800
2023-02-19T06:47:53.281Z,4.000
2023-02-19T06:50:53.309Z,4.500
2023-02-19T06:52:53.620Z,4.600
2023-02-19T06:55:53.396Z,3.400
2023-02-19T06:57:53.692Z,3.600
2023-02-19T06:59:54.128Z,4.700
2023-02-19T07:00:53.959Z,4.100
2023-02-19T07:02:53.316Z,4.500
2023-02-19T07:04:53.443Z,4.000
2023-02-19T07:07:53.484Z,4.100
2023-02-19T07:09:53.757Z,3.500
2023-02-19T07:12:53.748Z,3.800
2023-02-19T07:14:53.960Z,3.500
2023-02-19T07:17:54.044Z,3.700
2023-02-19T07:19:53.329Z,3.100
2023-02-19T07:22:54.168Z,2.900
2023-02-19T07:24:53.400Z,2.500
2023-02-19T07:26:53.612Z,2.700
2023-02-19T07:29:53.434Z,3.000
2023-02-19T07:34:55.844Z,2.900
2023-02-19T07:39:54.181Z,3.300
2023-02-19T07:44:53.242Z,3.100
2023-02-19T07:46:53.717Z,3.200
2023-02-19T07:49:53.776Z,2.500
2023-02-19T07:51:53.995Z,3.100
2023-02-19T07:56:54.121Z,3.300
2023-02-19T08:01:53.932Z,2.700
2023-02-19T08:04:53.697Z,3.100
2023-02-19T08:06:54.019Z,2.700
2023-02-19T08:09:54.019Z,3.300
2023-02-19T08:11:54.177Z,3.000
2023-02-19T08:12:53.892Z,2.700
2023-02-19T08:14:54.213Z,2.600
2023-02-19T08:17:03.247Z,2.800
2023-02-19T08:19:54.288Z,2.900
2023-02-19T08:22:53.759Z,2.900
2023-02-19T08:24:54.255Z,2.800
2023-02-19T08:27:54.132Z,2.700
2023-02-19T08:29:53.602Z,3.000
2023-02-19T08:32:53.374Z,3.100
2023-02-19T08:34:54.525Z,2.400
2023-02-19T08:37:53.472Z,2.700
2023-02-19T08:39:53.684Z,2.800
2023-02-19T08:42:53.748Z,3.300
2023-02-19T08:44:54.010Z,2.600
2023-02-19T08:46:54.188Z,2.500
2023-02-19T08:49:54.312Z,2.600
2023-02-19T08:54:55.595Z,2.700
2023-02-19T08:59:53.638Z,1.800
2023-02-19T09:01:53.952Z,2.100
2023-02-19T09:04:54.217Z,2.100
2023-02-19T09:06:53.526Z,2.300
2023-02-19T09:09:53.486Z,2.200
2023-02-19T09:11:53.657Z,2.000
2023-02-19T09:14:53.612Z,2.100
2023-02-19T09:16:54.062Z,2.200
2023-02-19T09:21:53.762Z,2.500
2023-02-19T09:26:56.452Z,1.900
2023-02-19T09:28:53.896Z,2.300
2023-02-19T09:31:54.844Z,1.900
2023-02-19T09:33:53.909Z,2.300
2023-02-19T09:36:53.988Z,2.300
2023-02-19T09:38:53.404Z,2.600
2023-02-19T09:41:54.172Z,2.400
2023-02-19T09:43:53.492Z,2.200
2023-02-19T09:46:53.384Z,2.600
2023-02-19T09:48:53.639Z,2.700
2023-02-19T09:49:53.296Z,2.300
2023-02-19T09:51:53.717Z,2.200
2023-02-19T09:53:53.936Z,2.000
2023-02-19T09:54:54.839Z,2.200
2023-02-19T09:56:54.861Z,2.400
2023-02-19T09:58:53.414Z,2.700
2023-02-19T09:59:54.031Z,2.400
2023-02-19T10:01:53.560Z,2.600
2023-02-19T10:04:53.978Z,2.300
2023-02-19T10:06:53.475Z,2.700
2023-02-19T10:09:53.375Z,2.900
2023-02-19T10:11:53.589Z,2.800
2023-02-19T10:14:53.536Z,3.000
2023-02-19T10:17:53.554Z,2.700
2023-02-19T10:19:53.881Z,2.900
2023-02-19T10:21:53.915Z,3.200
2023-02-19T10:22:53.536Z,3.100
2023-02-19T10:24:56.444Z,2.900
2023-02-19T10:26:53.748Z,3.100
2023-02-19T10:27:53.477Z,3.200
2023-02-19T10:29:53.721Z,2.800
2023-02-19T10:32:53.772Z,3.100
2023-02-19T10:34:54.064Z,2.800
2023-02-19T10:37:54.060Z,3.300
2023-02-19T10:39:53.397Z,3.200
2023-02-19T10:42:53.456Z,3.300
2023-02-19T10:44:53.665Z,3.800
2023-02-19T10:47:53.808Z,3.400
2023-02-19T10:49:54.162Z,3.800
2023-02-19T10:52:53.950Z,4.000
2023-02-19T10:59:53.388Z,4.200
2023-02-19T11:06:54.745Z,4.600
2023-02-19T11:08:54.200Z,4.000
2023-02-19T11:11:54.126Z,3.500
2023-02-19T11:14:54.338Z,3.800
2023-02-19T11:16:55.021Z,4.000
2023-02-19T11:19:54.320Z,4.100
2023-02-19T11:21:55.069Z,4.100
2023-02-19T11:24:59.489Z,3.800
2023-02-19T11:26:53.727Z,4.500
2023-02-19T11:27:53.477Z,3.600
2023-02-19T11:29:53.627Z,4.300
2023-02-19T11:32:54.244Z,4.000
2023-02-19T11:37:53.390Z,3.700
2023-02-19T11:42:53.572Z,3.400
2023-02-19T11:51:56.337Z,3.000
2023-02-19T11:56:53.508Z,2.600
2023-02-19T11:59:53.493Z,3.300
2023-02-19T12:02:54.020Z,3.000
2023-02-19T12:04:55.832Z,3.000
2023-02-19T12:13:53.557Z,4.100
2023-02-19T12:16:53.925Z,4.100
2023-02-19T12:18:54.260Z,4.600
2023-02-19T12:19:53.867Z,4.200
2023-02-19T12:21:54.121Z,4.600
2023-02-19T12:24:54.117Z,5.200
2023-02-19T12:26:54.088Z,4.500
2023-02-19T12:29:53.981Z,5.300
2023-02-19T12:38:53.416Z,5.300
2023-02-19T12:41:53.384Z,5.100
2023-02-19T12:43:53.257Z,5.000
2023-02-19T12:46:53.561Z,4.300
2023-02-19T12:49:53.540Z,5.200
2023-02-19T12:51:53.812Z,4.800
2023-02-19T12:54:55.983Z,5.400
2023-02-19T12:56:53.344Z,5.100
2023-02-19T12:59:53.287Z,4.300
2023-02-19T13:09:07.084Z,5.200
2023-02-19T13:10:56.905Z,4.200
2023-02-19T13:11:56.771Z,5.000
2023-02-19T13:13:56.261Z,4.800
2023-02-19T13:15:56.593Z,5.000
2023-02-19T13:16:56.997Z,4.400
2023-02-19T13:18:56.411Z,4.600
2023-02-19T13:21:56.400Z,3.800
2023-02-19T13:25:59.349Z,4.000
2023-02-19T13:27:59.565Z,3.700
2023-02-19T13:28:57.949Z,4.000
2023-02-19T13:30:58.005Z,3.900
2023-02-19T13:31:57.576Z,4.100
2023-02-19T13:34:03.869Z,4.100
2023-02-19T13:38:56.965Z,3.300
2023-02-19T13:50:56.631Z,2.500
2023-02-19T13:55:59.658Z,1.800
2023-02-19T13:58:56.721Z,2.000
2023-02-19T14:00:57.005Z,1.900
2023-02-19T14:03:56.444Z,1.900
2023-02-19T14:05:56.652Z,1.900
2023-02-19T14:06:56.324Z,1.800
2023-02-19T14:08:56.684Z,2.000
2023-02-19T14:10:56.888Z,2.400
2023-02-19T14:11:56.501Z,2.300
2023-02-19T14:13:56.789Z,2.200
2023-02-19T14:15:57.235Z,2.200
2023-02-19T14:18:57.167Z,2.500
2023-02-19T14:27:56.869Z,2.400
2023-02-19T14:31:57.773Z,2.600
2023-02-19T14:33:10.823Z,2.800
2023-02-19T14:35:00.874Z,2.400
2023-02-19T14:36:00.603Z,3.100
2023-02-19T14:37:02.762Z,2.700
2023-02-19T14:40:00.761Z,2.500
2023-02-19T14:43:02.899Z,3.000
2023-02-19T14:48:00.287Z,2.700
2023-02-19T14:51:01.176Z,2.700
2023-02-19T14:54:01.363Z,2.700
2023-02-19T14:55:01.554Z,2.900
2023-02-19T15:00:00.966Z,3.300
2023-02-19T15:05:00.745Z,3.100
2023-02-19T15:10:02.453Z,3.400
2023-02-19T15:15:00.713Z,3.400
2023-02-19T15:20:00.968Z,3.000
2023-02-19T15:30:02.356Z,3.900
2023-02-19T15:32:01.522Z,3.800
2023-02-19T15:40:02.270Z,4.400
2023-02-19T15:42:03.315Z,4.000
2023-02-19T15:47:00.859Z,3.900
2023-02-19T15:50:00.784Z,4.500
2023-02-19T15:53:02.926Z,4.600
2023-02-19T15:55:04.534Z,4.400
2023-02-19T15:58:00.552Z,4.300
2023-02-19T16:00:00.934Z,4.600
2023-02-19T16:03:02.274Z,5.100
2023-02-19T16:05:00.671Z,5.100
2023-02-19T16:08:00.700Z,4.700
2023-02-19T16:10:01.001Z,5.000
2023-02-19T16:13:00.962Z,4.700
2023-02-19T16:15:01.234Z,4.300
2023-02-19T16:18:00.698Z,4.100
2023-02-19T16:23:01.140Z,3.500
2023-02-19T16:26:01.840Z,3.700
2023-02-19T16:28:01.180Z,4.100
2023-02-19T16:31:01.328Z,3.900
2023-02-19T16:32:01.554Z,3.400
2023-02-19T16:33:01.326Z,3.400
2023-02-19T16:37:01.174Z,3.600
2023-02-19T16:39:00.480Z,3.800
2023-02-19T16:40:01.143Z,3.800
2023-02-19T16:44:00.295Z,4.100
2023-02-19T16:45:00.991Z,4.100
2023-02-19T16:46:02.835Z,4.200
2023-02-19T16:48:01.299Z,3.600
2023-02-19T16:50:00.867Z,3.900
2023-02-19T16:52:03.226Z,3.900
2023-02-19T16:54:00.429Z,3.900
2023-02-19T16:55:01.133Z,3.600
2023-02-19T16:57:00.770Z,3.700
2023-02-19T16:59:01.141Z,4.000
2023-02-19T17:00:00.856Z,3.500
2023-02-19T17:02:00.637Z,5.400
2023-02-19T17:04:01.139Z,4.500
2023-02-19T17:07:01.004Z,4.000
2023-02-19T17:09:00.332Z,4.300
2023-02-19T17:12:00.407Z,4.400
2023-02-19T17:14:00.638Z,4.500
2023-02-19T17:16:01.790Z,4.800
2023-02-19T17:17:03.681Z,5.200
2023-02-19T17:19:01.137Z,5.200
2023-02-19T17:22:00.953Z,4.800
2023-02-19T17:24:01.872Z,5.000
2023-02-19T17:27:01.017Z,5.400
2023-02-19T17:29:01.091Z,5.000
2023-02-19T17:32:02.012Z,5.400
2023-02-19T17:34:00.709Z,5.200
2023-02-19T17:39:00.858Z,5.300
2023-02-19T17:44:02.863Z,5.100
2023-02-19T17:46:01.365Z,6.100
2023-02-19T17:49:00.551Z,5.900
2023-02-19T17:54:01.304Z,5.800
2023-02-19T17:59:00.562Z,5.000
2023-02-19T18:04:01.585Z,5.700
2023-02-19T18:17:01.690Z,5.500
2023-02-19T18:19:01.442Z,6.000
2023-02-19T18:21:00.683Z,6.700
2023-02-19T18:26:01.481Z,6.100
2023-02-19T18:31:01.055Z,6.300
2023-02-19T18:32:01.615Z,6.300
2023-02-19T18:36:01.321Z,6.600
2023-02-19T18:41:02.232Z,6.000
2023-02-19T18:45:00.801Z,6.600
2023-02-19T18:47:01.308Z,7.200
2023-02-19T18:50:01.242Z,6.700
2023-02-19T18:55:00.580Z,6.000
2023-02-19T19:00:00.767Z,5.400
2023-02-19T19:03:09.276Z,5.900
2023-02-19T19:05:00.712Z,5.600
2023-02-19T19:08:01.256Z,6.200
2023-02-19T19:10:00.625Z,5.500
2023-02-19T19:12:00.812Z,6.600
2023-02-19T19:15:00.767Z,5.200
2023-02-19T19:17:01.151Z,5.200
2023-02-19T19:20:01.044Z,5.500
2023-02-19T19:22:00.869Z,5.300
2023-02-19T19:24:01.305Z,5.300
2023-02-19T19:27:00.911Z,4.900
2023-02-19T19:30:01.220Z,4.300
2023-02-19T19:32:01.337Z,4.500
2023-02-19T19:33:01.700Z,4.000
2023-02-19T19:35:01.116Z,4.700
2023-02-19T19:40:00.522Z,4.400
2023-02-19T19:42:00.754Z,4.800
2023-02-19T19:43:02.748Z,4.500
2023-02-19T19:45:01.163Z,4.500
2023-02-19T19:47:00.675Z,4.500
2023-02-19T19:50:00.773Z,4.200
2023-02-19T19:52:02.120Z,4.000
2023-02-19T19:55:01.104Z,3.800
2023-02-19T19:57:00.344Z,3.600
2023-02-19T20:00:00.313Z,3.900
2023-02-19T20:02:01.331Z,3.200
2023-02-19T20:05:00.564Z,3.200
2023-02-19T20:07:00.904Z,3.500
2023-02-19T20:10:00.804Z,3.800
2023-02-19T20:17:04.229Z,3.300
2023-02-19T20:22:00.532Z,3.600
2023-02-19T20:23:01.982Z,3.400
2023-02-19T20:27:00.755Z,3.700
2023-02-19T20:29:01.687Z,3.600
2023-02-19T20:31:01.433Z,3.600
2023-02-19T20:32:02.078Z,3.400
2023-02-19T20:37:01.610Z,3.500
2023-02-19T20:42:05.304Z,3.700
2023-02-19T20:47:01.058Z,4.000
2023-02-19T20:49:00.509Z,3.300
2023-02-19T20:52:00.595Z,3.500
2023-02-19T20:54:00.863Z,3.500
2023-02-19T21:06:01.928Z,4.100
2023-02-19T21:12:00.792Z,4.500
2023-02-19T21:17:00.796Z,4.400
2023-02-19T21:19:01.310Z,3.700
2023-02-19T21:26:00.731Z,3.600
2023-02-19T21:31:01.023Z,4.500
2023-02-19T21:36:01.161Z,4.900
2023-02-19T21:41:00.626Z,5.000
2023-02-19T21:43:05.834Z,4.100
2023-02-19T21:45:02.744Z,4.300
2023-02-19T21:53:00.699Z,4.000
2023-02-19T21:56:10.342Z,3.900
2023-02-19T21:58:00.481Z,4.700
2023-02-19T22:03:01.026Z,3.900
2023-02-19T22:08:00.400Z,4.100
2023-02-19T22:13:00.770Z,5.100
2023-02-19T22:18:00.293Z,5.000
2023-02-19T22:20:00.483Z,5.400
2023-02-19T22:23:00.523Z,5.100
2023-02-19T22:28:03.517Z,5.800
2023-02-19T22:40:00.558Z,6.700
2023-02-19T22:49:05.589Z,6.200
2023-02-19T22:50:03.404Z,6.500
2023-02-19T23:04:01.717Z,5.400
2023-02-19T23:17:01.828Z,7.000
2023-02-19T23:19:01.103Z,7.700
2023-02-19T23:20:01.292Z,6.800
2023-02-19T23:30:02.393Z,8.200
2023-02-19T23:31:01.738Z,8.800
2023-02-19T23:41:00.437Z,8.400
2023-02-19T23:45:01.835Z,9.400
2023-02-19T23:50:01.841Z,10.700
